sensor_id;sensor_type;location;lat;lon;timestamp;temperature;humidity
70271;SHT31;57680;54.292;18.598;2023-05-17T00:02:17;8.13;92.89
70271;SHT31;57680;54.292;18.598;2023-05-17T00:04:42;8.13;92.89
70271;SHT31;57680;54.292;18.598;2023-05-17T00:07:07;8.13;92.88
70271;SHT31;57680;54.292;18.598;2023-05-17T00:09:33;8.15;92.97
70271;SHT31;57680;54.292;18.598;2023-05-17T00:11:58;8.15;92.90
70271;SHT31;57680;54.292;18.598;2023-05-17T00:14:24;8.15;92.82
70271;SHT31;57680;54.292;18.598;2023-05-17T00:16:49;8.12;92.68
70271;SHT31;57680;54.292;18.598;2023-05-17T00:19:15;8.15;92.72
70271;SHT31;57680;54.292;18.598;2023-05-17T00:21:40;8.13;92.71
70271;SHT31;57680;54.292;18.598;2023-05-17T00:24:06;8.12;92.75
70271;SHT31;57680;54.292;18.598;2023-05-17T00:26:31;8.13;92.78
70271;SHT31;57680;54.292;18.598;2023-05-17T00:28:57;8.15;92.80
70271;SHT31;57680;54.292;18.598;2023-05-17T00:31:22;8.13;92.88
70271;SHT31;57680;54.292;18.598;2023-05-17T00:33:47;8.13;92.97
70271;SHT31;57680;54.292;18.598;2023-05-17T00:36:13;8.13;93.01
70271;SHT31;57680;54.292;18.598;2023-05-17T00:38:39;8.12;93.02
70271;SHT31;57680;54.292;18.598;2023-05-17T00:41:04;8.16;93.08
70271;SHT31;57680;54.292;18.598;2023-05-17T00:43:30;8.15;93.04
70271;SHT31;57680;54.292;18.598;2023-05-17T00:45:55;8.15;93.08
70271;SHT31;57680;54.292;18.598;2023-05-17T00:48:20;8.19;93.09
70271;SHT31;57680;54.292;18.598;2023-05-17T00:50:46;8.17;93.18
70271;SHT31;57680;54.292;18.598;2023-05-17T00:53:12;8.17;93.29
70271;SHT31;57680;54.292;18.598;2023-05-17T00:55:38;8.16;93.38
70271;SHT31;57680;54.292;18.598;2023-05-17T00:58:03;8.19;93.32
70271;SHT31;57680;54.292;18.598;2023-05-17T01:00:29;8.21;93.44
70271;SHT31;57680;54.292;18.598;2023-05-17T01:02:54;8.22;93.51
70271;SHT31;57680;54.292;18.598;2023-05-17T01:05:20;8.25;93.57
70271;SHT31;57680;54.292;18.598;2023-05-17T01:07:45;8.26;93.31
70271;SHT31;57680;54.292;18.598;2023-05-17T01:10:11;8.29;93.45
70271;SHT31;57680;54.292;18.598;2023-05-17T01:15:14;8.28;93.47
70271;SHT31;57680;54.292;18.598;2023-05-17T01:20:36;8.26;93.59
70271;SHT31;57680;54.292;18.598;2023-05-17T01:23:34;8.22;93.63
70271;SHT31;57680;54.292;18.598;2023-05-17T01:26:15;8.23;93.54
70271;SHT31;57680;54.292;18.598;2023-05-17T01:28:44;8.22;93.52
70271;SHT31;57680;54.292;18.598;2023-05-17T01:31:11;8.19;93.58
70271;SHT31;57680;54.292;18.598;2023-05-17T01:33:37;8.16;93.53
70271;SHT31;57680;54.292;18.598;2023-05-17T01:36:03;8.15;93.56
70271;SHT31;57680;54.292;18.598;2023-05-17T01:38:29;8.16;93.52
70271;SHT31;57680;54.292;18.598;2023-05-17T01:40:58;8.13;93.69
70271;SHT31;57680;54.292;18.598;2023-05-17T01:46:30;8.09;93.81
70271;SHT31;57680;54.292;18.598;2023-05-17T01:49:20;8.06;93.91
70271;SHT31;57680;54.292;18.598;2023-05-17T01:51:50;8.05;93.91
70271;SHT31;57680;54.292;18.598;2023-05-17T01:54:23;8.05;93.86
70271;SHT31;57680;54.292;18.598;2023-05-17T01:56:56;8.01;93.79
70271;SHT31;57680;54.292;18.598;2023-05-17T01:59:23;7.96;93.92
70271;SHT31;57680;54.292;18.598;2023-05-17T02:01:52;7.94;94.07
70271;SHT31;57680;54.292;18.598;2023-05-17T02:04:19;7.91;94.15
70271;SHT31;57680;54.292;18.598;2023-05-17T02:06:45;7.95;94.13
70271;SHT31;57680;54.292;18.598;2023-05-17T02:09:11;7.92;93.99
70271;SHT31;57680;54.292;18.598;2023-05-17T02:11:37;7.89;94.05
70271;SHT31;57680;54.292;18.598;2023-05-17T02:14:02;7.88;94.02
70271;SHT31;57680;54.292;18.598;2023-05-17T02:16:28;7.86;94.09
70271;SHT31;57680;54.292;18.598;2023-05-17T02:18:53;7.84;94.10
70271;SHT31;57680;54.292;18.598;2023-05-17T02:21:19;7.78;94.22
70271;SHT31;57680;54.292;18.598;2023-05-17T02:23:44;7.77;94.41
70271;SHT31;57680;54.292;18.598;2023-05-17T02:26:10;7.77;94.38
70271;SHT31;57680;54.292;18.598;2023-05-17T02:28:35;7.77;94.34
70271;SHT31;57680;54.292;18.598;2023-05-17T02:31:01;7.75;94.32
70271;SHT31;57680;54.292;18.598;2023-05-17T02:33:27;7.75;94.13
70271;SHT31;57680;54.292;18.598;2023-05-17T02:35:53;7.75;94.22
70271;SHT31;57680;54.292;18.598;2023-05-17T02:38:18;7.75;94.21
70271;SHT31;57680;54.292;18.598;2023-05-17T02:40:44;7.75;94.20
70271;SHT31;57680;54.292;18.598;2023-05-17T02:43:09;7.75;94.12
70271;SHT31;57680;54.292;18.598;2023-05-17T02:45:35;7.73;94.08
70271;SHT31;57680;54.292;18.598;2023-05-17T02:48:00;7.74;94.16
70271;SHT31;57680;54.292;18.598;2023-05-17T02:50:26;7.73;94.14
70271;SHT31;57680;54.292;18.598;2023-05-17T02:52:51;7.75;94.12
70271;SHT31;57680;54.292;18.598;2023-05-17T02:55:17;7.74;94.08
70271;SHT31;57680;54.292;18.598;2023-05-17T02:57:43;7.74;94.07
70271;SHT31;57680;54.292;18.598;2023-05-17T03:00:08;7.78;94.05
70271;SHT31;57680;54.292;18.598;2023-05-17T03:02:34;7.79;93.88
70271;SHT31;57680;54.292;18.598;2023-05-17T03:05:00;7.86;93.89
70271;SHT31;57680;54.292;18.598;2023-05-17T03:07:25;7.88;93.61
70271;SHT31;57680;54.292;18.598;2023-05-17T03:09:52;7.96;93.47
70271;SHT31;57680;54.292;18.598;2023-05-17T03:12:17;8.02;92.87
70271;SHT31;57680;54.292;18.598;2023-05-17T03:14:43;8.17;92.15
70271;SHT31;57680;54.292;18.598;2023-05-17T03:17:08;8.36;91.34
70271;SHT31;57680;54.292;18.598;2023-05-17T03:19:34;8.65;90.89
70271;SHT31;57680;54.292;18.598;2023-05-17T03:22:00;8.73;89.12
70271;SHT31;57680;54.292;18.598;2023-05-17T03:24:25;8.74;88.87
70271;SHT31;57680;54.292;18.598;2023-05-17T03:26:51;8.84;88.82
70271;SHT31;57680;54.292;18.598;2023-05-17T03:29:16;8.88;87.72
70271;SHT31;57680;54.292;18.598;2023-05-17T03:31:42;9.01;86.93
70271;SHT31;57680;54.292;18.598;2023-05-17T03:34:08;9.15;86.73
70271;SHT31;57680;54.292;18.598;2023-05-17T03:36:33;9.03;86.94
70271;SHT31;57680;54.292;18.598;2023-05-17T03:38:59;9.03;86.60
70271;SHT31;57680;54.292;18.598;2023-05-17T03:41:24;9.05;86.25
70271;SHT31;57680;54.292;18.598;2023-05-17T03:43:50;9.29;84.73
70271;SHT31;57680;54.292;18.598;2023-05-17T03:46:16;9.72;83.77
70271;SHT31;57680;54.292;18.598;2023-05-17T03:48:41;10.00;81.33
70271;SHT31;57680;54.292;18.598;2023-05-17T03:51:07;9.90;81.16
70271;SHT31;57680;54.292;18.598;2023-05-17T03:53:32;9.69;82.04
70271;SHT31;57680;54.292;18.598;2023-05-17T03:55:58;9.59;81.97
70271;SHT31;57680;54.292;18.598;2023-05-17T03:58:23;9.53;81.83
70271;SHT31;57680;54.292;18.598;2023-05-17T04:00:49;9.56;81.99
70271;SHT31;57680;54.292;18.598;2023-05-17T04:03:14;9.49;82.08
70271;SHT31;57680;54.292;18.598;2023-05-17T04:05:40;9.50;82.51
70271;SHT31;57680;54.292;18.598;2023-05-17T04:08:06;9.55;82.83
70271;SHT31;57680;54.292;18.598;2023-05-17T04:10:31;9.55;82.48
70271;SHT31;57680;54.292;18.598;2023-05-17T04:12:56;9.53;82.26
70271;SHT31;57680;54.292;18.598;2023-05-17T04:15:22;9.62;82.13
70271;SHT31;57680;54.292;18.598;2023-05-17T04:17:47;9.76;81.65
70271;SHT31;57680;54.292;18.598;2023-05-17T04:20:13;9.83;80.82
70271;SHT31;57680;54.292;18.598;2023-05-17T04:22:39;9.94;80.39
70271;SHT31;57680;54.292;18.598;2023-05-17T04:25:05;10.27;79.82
70271;SHT31;57680;54.292;18.598;2023-05-17T04:27:30;10.71;78.09
70271;SHT31;57680;54.292;18.598;2023-05-17T04:29:57;11.00;77.56
70271;SHT31;57680;54.292;18.598;2023-05-17T04:32:22;11.14;76.53
70271;SHT31;57680;54.292;18.598;2023-05-17T04:34:47;11.02;75.89
70271;SHT31;57680;54.292;18.598;2023-05-17T04:37:13;10.80;76.25
70271;SHT31;57680;54.292;18.598;2023-05-17T04:39:38;10.82;77.19
70271;SHT31;57680;54.292;18.598;2023-05-17T04:42:04;10.85;76.77
70271;SHT31;57680;54.292;18.598;2023-05-17T04:44:29;10.77;77.43
70271;SHT31;57680;54.292;18.598;2023-05-17T04:46:55;10.68;78.00
70271;SHT31;57680;54.292;18.598;2023-05-17T04:49:20;10.46;77.15
70271;SHT31;57680;54.292;18.598;2023-05-17T04:51:46;10.62;77.93
70271;SHT31;57680;54.292;18.598;2023-05-17T04:54:11;10.71;77.15
70271;SHT31;57680;54.292;18.598;2023-05-17T04:56:37;10.91;76.25
70271;SHT31;57680;54.292;18.598;2023-05-17T04:59:02;10.82;77.53
70271;SHT31;57680;54.292;18.598;2023-05-17T05:01:28;10.65;76.86
70271;SHT31;57680;54.292;18.598;2023-05-17T05:03:53;10.52;77.61
70271;SHT31;57680;54.292;18.598;2023-05-17T05:06:19;10.31;78.04
70271;SHT31;57680;54.292;18.598;2023-05-17T05:08:45;10.38;78.56
70271;SHT31;57680;54.292;18.598;2023-05-17T05:11:10;10.41;78.70
70271;SHT31;57680;54.292;18.598;2023-05-17T05:13:35;10.65;77.31
70271;SHT31;57680;54.292;18.598;2023-05-17T05:16:01;10.89;76.27
70271;SHT31;57680;54.292;18.598;2023-05-17T05:18:26;11.38;75.69
70271;SHT31;57680;54.292;18.598;2023-05-17T05:20:52;11.85;74.03
70271;SHT31;57680;54.292;18.598;2023-05-17T05:23:17;11.84;72.94
70271;SHT31;57680;54.292;18.598;2023-05-17T05:25:43;11.94;73.17
70271;SHT31;57680;54.292;18.598;2023-05-17T05:28:08;12.29;72.75
70271;SHT31;57680;54.292;18.598;2023-05-17T05:30:34;12.43;71.46
70271;SHT31;57680;54.292;18.598;2023-05-17T05:33:00;12.44;70.97
70271;SHT31;57680;54.292;18.598;2023-05-17T05:35:25;12.66;70.38
70271;SHT31;57680;54.292;18.598;2023-05-17T05:37:51;13.21;70.11
70271;SHT31;57680;54.292;18.598;2023-05-17T05:40:16;13.63;67.77
70271;SHT31;57680;54.292;18.598;2023-05-17T05:42:41;13.89;67.22
70271;SHT31;57680;54.292;18.598;2023-05-17T05:45:09;14.18;65.91
70271;SHT31;57680;54.292;18.598;2023-05-17T05:47:35;14.21;64.49
70271;SHT31;57680;54.292;18.598;2023-05-17T05:50:00;14.54;64.03
70271;SHT31;57680;54.292;18.598;2023-05-17T05:52:26;14.68;63.67
70271;SHT31;57680;54.292;18.598;2023-05-17T05:54:51;14.88;62.73
70271;SHT31;57680;54.292;18.598;2023-05-17T05:57:17;14.86;62.01
70271;SHT31;57680;54.292;18.598;2023-05-17T05:59:42;15.06;61.68
70271;SHT31;57680;54.292;18.598;2023-05-17T06:02:08;15.32;61.44
70271;SHT31;57680;54.292;18.598;2023-05-17T06:04:34;15.13;59.45
70271;SHT31;57680;54.292;18.598;2023-05-17T06:06:59;14.93;60.11
70271;SHT31;57680;54.292;18.598;2023-05-17T06:09:25;14.95;59.97
70271;SHT31;57680;54.292;18.598;2023-05-17T06:11:53;14.95;60.05
70271;SHT31;57680;54.292;18.598;2023-05-17T06:14:18;14.79;59.46
70271;SHT31;57680;54.292;18.598;2023-05-17T06:16:45;14.88;58.58
70271;SHT31;57680;54.292;18.598;2023-05-17T06:19:10;14.61;60.70
70271;SHT31;57680;54.292;18.598;2023-05-17T06:21:36;14.72;59.32
70271;SHT31;57680;54.292;18.598;2023-05-17T06:24:01;14.86;58.59
70271;SHT31;57680;54.292;18.598;2023-05-17T06:26:27;14.92;59.04
70271;SHT31;57680;54.292;18.598;2023-05-17T06:28:52;14.75;59.66
70271;SHT31;57680;54.292;18.598;2023-05-17T06:31:18;14.58;59.27
70271;SHT31;57680;54.292;18.598;2023-05-17T06:33:43;13.91;58.65
70271;SHT31;57680;54.292;18.598;2023-05-17T06:36:09;14.12;60.29
70271;SHT31;57680;54.292;18.598;2023-05-17T06:38:34;14.23;59.45
70271;SHT31;57680;54.292;18.598;2023-05-17T06:41:00;14.44;60.16
70271;SHT31;57680;54.292;18.598;2023-05-17T06:43:25;14.30;59.17
70271;SHT31;57680;54.292;18.598;2023-05-17T06:45:51;14.18;59.91
70271;SHT31;57680;54.292;18.598;2023-05-17T06:56:13;13.45;61.33
70271;SHT31;57680;54.292;18.598;2023-05-17T07:03:41;13.65;63.54
70271;SHT31;57680;54.292;18.598;2023-05-17T07:06:06;14.30;63.62
70271;SHT31;57680;54.292;18.598;2023-05-17T07:08:32;14.58;59.32
70271;SHT31;57680;54.292;18.598;2023-05-17T07:10:58;14.72;57.61
70271;SHT31;57680;54.292;18.598;2023-05-17T07:13:23;14.49;60.77
70271;SHT31;57680;54.292;18.598;2023-05-17T07:15:48;15.03;59.89
70271;SHT31;57680;54.292;18.598;2023-05-17T07:18:14;14.99;57.95
70271;SHT31;57680;54.292;18.598;2023-05-17T07:20:39;14.27;58.05
70271;SHT31;57680;54.292;18.598;2023-05-17T07:23:05;13.77;60.61
70271;SHT31;57680;54.292;18.598;2023-05-17T07:25:30;13.66;61.52
70271;SHT31;57680;54.292;18.598;2023-05-17T07:27:56;13.51;62.24
70271;SHT31;57680;54.292;18.598;2023-05-17T07:30:21;13.24;64.10
70271;SHT31;57680;54.292;18.598;2023-05-17T07:32:48;13.04;63.19
70271;SHT31;57680;54.292;18.598;2023-05-17T07:35:13;12.88;65.50
70271;SHT31;57680;54.292;18.598;2023-05-17T07:37:39;12.70;66.28
70271;SHT31;57680;54.292;18.598;2023-05-17T07:40:05;12.52;66.92
70271;SHT31;57680;54.292;18.598;2023-05-17T07:42:32;12.37;68.68
70271;SHT31;57680;54.292;18.598;2023-05-17T07:44:57;12.36;68.26
70271;SHT31;57680;54.292;18.598;2023-05-17T07:47:23;12.44;67.43
70271;SHT31;57680;54.292;18.598;2023-05-17T07:49:48;12.28;67.27
70271;SHT31;57680;54.292;18.598;2023-05-17T07:52:13;12.21;67.75
70271;SHT31;57680;54.292;18.598;2023-05-17T07:54:39;12.18;67.97
70271;SHT31;57680;54.292;18.598;2023-05-17T07:57:04;12.32;68.73
70271;SHT31;57680;54.292;18.598;2023-05-17T07:59:31;12.25;68.02
70271;SHT31;57680;54.292;18.598;2023-05-17T08:01:57;12.26;67.62
70271;SHT31;57680;54.292;18.598;2023-05-17T08:04:22;12.15;66.96
70271;SHT31;57680;54.292;18.598;2023-05-17T08:06:48;12.01;67.61
70271;SHT31;57680;54.292;18.598;2023-05-17T08:09:14;12.06;68.59
70271;SHT31;57680;54.292;18.598;2023-05-17T08:11:41;12.23;68.05
70271;SHT31;57680;54.292;18.598;2023-05-17T08:14:06;12.30;68.18
70271;SHT31;57680;54.292;18.598;2023-05-17T08:16:32;12.21;67.37
70271;SHT31;57680;54.292;18.598;2023-05-17T08:18:57;12.19;66.75
70271;SHT31;57680;54.292;18.598;2023-05-17T08:21:22;12.08;65.82
70271;SHT31;57680;54.292;18.598;2023-05-17T08:23:48;12.19;66.01
70271;SHT31;57680;54.292;18.598;2023-05-17T08:26:13;12.22;65.52
70271;SHT31;57680;54.292;18.598;2023-05-17T08:28:39;12.22;66.83
70271;SHT31;57680;54.292;18.598;2023-05-17T08:31:05;12.42;65.74
70271;SHT31;57680;54.292;18.598;2023-05-17T08:33:31;13.15;65.20
70271;SHT31;57680;54.292;18.598;2023-05-17T08:35:56;13.80;63.71
70271;SHT31;57680;54.292;18.598;2023-05-17T08:38:22;14.20;62.52
70271;SHT31;57680;54.292;18.598;2023-05-17T08:40:53;14.78;60.02
70271;SHT31;57680;54.292;18.598;2023-05-17T08:43:21;14.28;56.99
70271;SHT31;57680;54.292;18.598;2023-05-17T08:45:48;14.04;58.98
70271;SHT31;57680;54.292;18.598;2023-05-17T08:48:14;13.77;59.46
70271;SHT31;57680;54.292;18.598;2023-05-17T08:50:39;13.65;58.73
70271;SHT31;57680;54.292;18.598;2023-05-17T08:53:06;13.46;59.47
70271;SHT31;57680;54.292;18.598;2023-05-17T08:55:32;13.41;60.20
70271;SHT31;57680;54.292;18.598;2023-05-17T08:57:58;13.18;62.12
70271;SHT31;57680;54.292;18.598;2023-05-17T09:00:25;12.95;62.21
70271;SHT31;57680;54.292;18.598;2023-05-17T09:02:51;12.84;63.31
70271;SHT31;57680;54.292;18.598;2023-05-17T09:05:17;12.72;64.46
70271;SHT31;57680;54.292;18.598;2023-05-17T09:07:43;12.52;64.59
70271;SHT31;57680;54.292;18.598;2023-05-17T09:10:09;12.39;64.76
70271;SHT31;57680;54.292;18.598;2023-05-17T09:12:34;12.29;65.74
70271;SHT31;57680;54.292;18.598;2023-05-17T09:15:19;12.35;66.48
70271;SHT31;57680;54.292;18.598;2023-05-17T09:17:52;12.30;65.33
70271;SHT31;57680;54.292;18.598;2023-05-17T09:20:22;12.32;66.63
70271;SHT31;57680;54.292;18.598;2023-05-17T09:22:47;12.53;66.78
70271;SHT31;57680;54.292;18.598;2023-05-17T09:25:18;12.81;65.40
70271;SHT31;57680;54.292;18.598;2023-05-17T09:27:44;12.95;64.04
70271;SHT31;57680;54.292;18.598;2023-05-17T09:30:09;12.97;63.70
70271;SHT31;57680;54.292;18.598;2023-05-17T09:32:42;13.16;65.11
70271;SHT31;57680;54.292;18.598;2023-05-17T09:35:09;13.32;62.68
70271;SHT31;57680;54.292;18.598;2023-05-17T09:37:36;13.73;60.90
70271;SHT31;57680;54.292;18.598;2023-05-17T09:40:02;14.09;60.35
70271;SHT31;57680;54.292;18.598;2023-05-17T09:42:28;14.18;61.29
70271;SHT31;57680;54.292;18.598;2023-05-17T09:44:55;13.84;59.75
70271;SHT31;57680;54.292;18.598;2023-05-17T09:47:38;13.34;62.01
70271;SHT31;57680;54.292;18.598;2023-05-17T09:50:04;12.95;60.66
70271;SHT31;57680;54.292;18.598;2023-05-17T09:52:29;13.01;61.77
70271;SHT31;57680;54.292;18.598;2023-05-17T09:54:56;13.29;62.86
70271;SHT31;57680;54.292;18.598;2023-05-17T09:57:24;13.84;60.10
70271;SHT31;57680;54.292;18.598;2023-05-17T09:59:50;14.25;57.09
70271;SHT31;57680;54.292;18.598;2023-05-17T10:02:20;14.74;56.72
70271;SHT31;57680;54.292;18.598;2023-05-17T10:04:45;15.07;53.76
70271;SHT31;57680;54.292;18.598;2023-05-17T10:07:14;14.89;52.97
70271;SHT31;57680;54.292;18.598;2023-05-17T10:09:42;14.68;52.79
70271;SHT31;57680;54.292;18.598;2023-05-17T10:12:08;14.34;54.51
70271;SHT31;57680;54.292;18.598;2023-05-17T10:14:34;14.28;55.56
70271;SHT31;57680;54.292;18.598;2023-05-17T10:17:02;14.30;57.15
70271;SHT31;57680;54.292;18.598;2023-05-17T10:19:28;14.58;57.66
70271;SHT31;57680;54.292;18.598;2023-05-17T10:21:54;14.44;52.71
70271;SHT31;57680;54.292;18.598;2023-05-17T10:24:22;14.60;54.28
70271;SHT31;57680;54.292;18.598;2023-05-17T10:26:51;14.58;53.76
70271;SHT31;57680;54.292;18.598;2023-05-17T10:29:16;14.69;51.84
70271;SHT31;57680;54.292;18.598;2023-05-17T10:31:42;14.88;53.03
70271;SHT31;57680;54.292;18.598;2023-05-17T10:34:09;15.02;52.69
70271;SHT31;57680;54.292;18.598;2023-05-17T10:36:36;14.98;51.34
70271;SHT31;57680;54.292;18.598;2023-05-17T10:39:02;14.92;50.36
70271;SHT31;57680;54.292;18.598;2023-05-17T10:41:33;14.65;51.33
70271;SHT31;57680;54.292;18.598;2023-05-17T10:44:06;14.91;50.47
70271;SHT31;57680;54.292;18.598;2023-05-17T10:46:35;15.06;51.05
70271;SHT31;57680;54.292;18.598;2023-05-17T10:49:00;15.22;51.41
70271;SHT31;57680;54.292;18.598;2023-05-17T10:51:30;15.19;50.60
70271;SHT31;57680;54.292;18.598;2023-05-17T10:56:31;14.62;49.67
70271;SHT31;57680;54.292;18.598;2023-05-17T10:59:17;14.82;53.79
70271;SHT31;57680;54.292;18.598;2023-05-17T11:04:32;14.41;52.14
70271;SHT31;57680;54.292;18.598;2023-05-17T11:09:45;14.33;51.42
70271;SHT31;57680;54.292;18.598;2023-05-17T11:12:13;14.31;52.66
70271;SHT31;57680;54.292;18.598;2023-05-17T11:17:15;14.35;49.38
70271;SHT31;57680;54.292;18.598;2023-05-17T11:22:21;14.65;48.09
70271;SHT31;57680;54.292;18.598;2023-05-17T11:24:50;14.75;49.94
70271;SHT31;57680;54.292;18.598;2023-05-17T11:27:18;14.89;49.48
70271;SHT31;57680;54.292;18.598;2023-05-17T11:29:47;14.99;48.38
70271;SHT31;57680;54.292;18.598;2023-05-17T11:32:12;14.95;46.71
70271;SHT31;57680;54.292;18.598;2023-05-17T11:34:38;14.98;47.24
70271;SHT31;57680;54.292;18.598;2023-05-17T11:37:09;14.79;49.55
70271;SHT31;57680;54.292;18.598;2023-05-17T11:39:35;14.75;45.91
70271;SHT31;57680;54.292;18.598;2023-05-17T11:42:01;14.61;48.05
70271;SHT31;57680;54.292;18.598;2023-05-17T11:44:32;14.38;49.07
70271;SHT31;57680;54.292;18.598;2023-05-17T11:47:05;14.24;47.72
70271;SHT31;57680;54.292;18.598;2023-05-17T11:49:32;14.34;49.25
70271;SHT31;57680;54.292;18.598;2023-05-17T11:51:58;14.33;50.35
70271;SHT31;57680;54.292;18.598;2023-05-17T11:54:25;14.23;47.58
70271;SHT31;57680;54.292;18.598;2023-05-17T11:56:53;14.38;50.93
70271;SHT31;57680;54.292;18.598;2023-05-17T11:59:20;14.51;48.55
70271;SHT31;57680;54.292;18.598;2023-05-17T12:01:47;14.85;50.00
70271;SHT31;57680;54.292;18.598;2023-05-17T12:04:13;14.69;49.48
70271;SHT31;57680;54.292;18.598;2023-05-17T12:06:38;14.60;47.92
70271;SHT31;57680;54.292;18.598;2023-05-17T12:09:04;14.48;50.17
70271;SHT31;57680;54.292;18.598;2023-05-17T12:11:31;14.03;50.05
70271;SHT31;57680;54.292;18.598;2023-05-17T12:13:56;14.09;52.21
70271;SHT31;57680;54.292;18.598;2023-05-17T12:16:22;14.13;48.64
70271;SHT31;57680;54.292;18.598;2023-05-17T12:18:50;13.97;50.37
70271;SHT31;57680;54.292;18.598;2023-05-17T12:21:16;14.24;53.42
70271;SHT31;57680;54.292;18.598;2023-05-17T12:23:44;14.34;49.86
70271;SHT31;57680;54.292;18.598;2023-05-17T12:26:11;14.38;51.14
70271;SHT31;57680;54.292;18.598;2023-05-17T12:28:39;14.37;51.90
70271;SHT31;57680;54.292;18.598;2023-05-17T12:31:11;14.10;48.47
70271;SHT31;57680;54.292;18.598;2023-05-17T12:33:41;14.06;51.91
70271;SHT31;57680;54.292;18.598;2023-05-17T12:36:08;14.02;50.95
70271;SHT31;57680;54.292;18.598;2023-05-17T12:38:35;14.07;50.15
70271;SHT31;57680;54.292;18.598;2023-05-17T12:41:02;13.84;51.79
70271;SHT31;57680;54.292;18.598;2023-05-17T12:43:36;13.82;52.00
70271;SHT31;57680;54.292;18.598;2023-05-17T12:46:12;13.52;50.58
70271;SHT31;57680;54.292;18.598;2023-05-17T12:48:40;13.41;47.79
70271;SHT31;57680;54.292;18.598;2023-05-17T12:56:20;13.34;50.25
70271;SHT31;57680;54.292;18.598;2023-05-17T12:59:15;13.25;51.91
70271;SHT31;57680;54.292;18.598;2023-05-17T13:01:44;13.45;51.63
70271;SHT31;57680;54.292;18.598;2023-05-17T13:04:12;13.51;51.99
70271;SHT31;57680;54.292;18.598;2023-05-17T13:06:47;13.39;50.87
70271;SHT31;57680;54.292;18.598;2023-05-17T13:09:14;13.46;52.27
70271;SHT31;57680;54.292;18.598;2023-05-17T13:11:52;13.67;52.60
70271;SHT31;57680;54.292;18.598;2023-05-17T13:14:40;13.59;50.44
70271;SHT31;57680;54.292;18.598;2023-05-17T13:19:44;13.25;51.11
70271;SHT31;57680;54.292;18.598;2023-05-17T13:22:10;13.45;51.82
70271;SHT31;57680;54.292;18.598;2023-05-17T13:24:37;13.51;48.70
70271;SHT31;57680;54.292;18.598;2023-05-17T13:27:03;13.52;51.80
70271;SHT31;57680;54.292;18.598;2023-05-17T13:29:32;13.41;50.75
70271;SHT31;57680;54.292;18.598;2023-05-17T13:31:57;13.62;53.14
70271;SHT31;57680;54.292;18.598;2023-05-17T13:34:23;13.43;49.83
70271;SHT31;57680;54.292;18.598;2023-05-17T13:36:48;13.73;51.81
70271;SHT31;57680;54.292;18.598;2023-05-17T13:39:14;13.87;52.63
70271;SHT31;57680;54.292;18.598;2023-05-17T13:41:40;13.77;50.87
70271;SHT31;57680;54.292;18.598;2023-05-17T13:44:06;13.70;50.87
70271;SHT31;57680;54.292;18.598;2023-05-17T13:46:31;13.59;50.48
70271;SHT31;57680;54.292;18.598;2023-05-17T13:48:57;13.55;51.09
70271;SHT31;57680;54.292;18.598;2023-05-17T13:51:23;13.58;49.92
70271;SHT31;57680;54.292;18.598;2023-05-17T13:53:48;13.62;50.53
70271;SHT31;57680;54.292;18.598;2023-05-17T13:56:14;13.67;49.90
70271;SHT31;57680;54.292;18.598;2023-05-17T13:58:39;13.74;51.35
70271;SHT31;57680;54.292;18.598;2023-05-17T14:01:05;13.34;49.03
70271;SHT31;57680;54.292;18.598;2023-05-17T14:03:30;13.34;51.06
70271;SHT31;57680;54.292;18.598;2023-05-17T14:05:56;13.18;50.60
70271;SHT31;57680;54.292;18.598;2023-05-17T14:08:22;12.88;49.47
70271;SHT31;57680;54.292;18.598;2023-05-17T14:10:47;12.98;51.44
70271;SHT31;57680;54.292;18.598;2023-05-17T14:13:13;12.76;52.28
70271;SHT31;57680;54.292;18.598;2023-05-17T14:15:38;12.81;52.64
70271;SHT31;57680;54.292;18.598;2023-05-17T14:18:05;12.91;53.43
70271;SHT31;57680;54.292;18.598;2023-05-17T14:20:31;12.98;52.33
70271;SHT31;57680;54.292;18.598;2023-05-17T14:22:57;12.87;51.89
70271;SHT31;57680;54.292;18.598;2023-05-17T14:25:22;12.84;53.16
70271;SHT31;57680;54.292;18.598;2023-05-17T14:27:48;12.90;52.38
70271;SHT31;57680;54.292;18.598;2023-05-17T14:30:13;12.72;52.05
70271;SHT31;57680;54.292;18.598;2023-05-17T14:32:38;12.64;54.24
70271;SHT31;57680;54.292;18.598;2023-05-17T14:35:05;12.72;53.92
70271;SHT31;57680;54.292;18.598;2023-05-17T14:37:31;12.70;53.40
70271;SHT31;57680;54.292;18.598;2023-05-17T14:39:56;12.79;53.18
70271;SHT31;57680;54.292;18.598;2023-05-17T14:42:22;12.79;52.30
70271;SHT31;57680;54.292;18.598;2023-05-17T14:44:47;12.73;51.91
70271;SHT31;57680;54.292;18.598;2023-05-17T14:47:12;12.68;53.02
70271;SHT31;57680;54.292;18.598;2023-05-17T14:49:38;12.56;52.93
70271;SHT31;57680;54.292;18.598;2023-05-17T14:52:03;12.47;53.08
70271;SHT31;57680;54.292;18.598;2023-05-17T14:54:29;12.40;52.70
70271;SHT31;57680;54.292;18.598;2023-05-17T14:56:55;12.32;54.80
70271;SHT31;57680;54.292;18.598;2023-05-17T14:59:21;12.28;54.87
70271;SHT31;57680;54.292;18.598;2023-05-17T15:01:46;12.21;54.04
70271;SHT31;57680;54.292;18.598;2023-05-17T15:04:12;12.19;56.59
70271;SHT31;57680;54.292;18.598;2023-05-17T15:06:37;12.12;53.25
70271;SHT31;57680;54.292;18.598;2023-05-17T15:09:03;12.06;52.90
70271;SHT31;57680;54.292;18.598;2023-05-17T15:11:28;12.01;53.84
70271;SHT31;57680;54.292;18.598;2023-05-17T15:13:54;12.05;54.04
70271;SHT31;57680;54.292;18.598;2023-05-17T15:16:19;12.06;55.16
70271;SHT31;57680;54.292;18.598;2023-05-17T15:18:45;12.02;55.14
70271;SHT31;57680;54.292;18.598;2023-05-17T15:21:10;12.02;56.15
70271;SHT31;57680;54.292;18.598;2023-05-17T15:23:35;12.13;56.32
70271;SHT31;57680;54.292;18.598;2023-05-17T15:26:01;11.96;54.54
70271;SHT31;57680;54.292;18.598;2023-05-17T15:28:27;11.78;53.10
70271;SHT31;57680;54.292;18.598;2023-05-17T15:31:02;11.58;52.94
70271;SHT31;57680;54.292;18.598;2023-05-17T15:33:28;11.58;53.59
70271;SHT31;57680;54.292;18.598;2023-05-17T15:35:54;11.51;53.92
70271;SHT31;57680;54.292;18.598;2023-05-17T15:38:19;11.44;54.43
70271;SHT31;57680;54.292;18.598;2023-05-17T15:40:45;11.44;56.21
70271;SHT31;57680;54.292;18.598;2023-05-17T15:43:10;11.35;56.14
70271;SHT31;57680;54.292;18.598;2023-05-17T15:45:35;11.38;54.92
70271;SHT31;57680;54.292;18.598;2023-05-17T15:48:01;11.37;55.47
70271;SHT31;57680;54.292;18.598;2023-05-17T15:50:27;11.27;56.22
70271;SHT31;57680;54.292;18.598;2023-05-17T15:52:52;11.24;55.72
70271;SHT31;57680;54.292;18.598;2023-05-17T15:55:18;11.24;56.94
70271;SHT31;57680;54.292;18.598;2023-05-17T15:57:43;11.26;57.10
70271;SHT31;57680;54.292;18.598;2023-05-17T16:00:09;11.23;57.51